sensor_id;sensor_type;location;lat;lon;timestamp;P1;durP1;ratioP1;P2;durP2;ratioP2
22543;SDS011;11438;52.044;8.716;2023-08-20T00:00:13;15.25;;;11.43;;
22543;SDS011;11438;52.044;8.716;2023-08-20T00:02:41;15.32;;;11.10;;
22543;SDS011;11438;52.044;8.716;2023-08-20T00:05:07;14.18;;;10.18;;
22543;SDS011;11438;52.044;8.716;2023-08-20T00:07:34;12.57;;;8.38;;
22543;SDS011;11438;52.044;8.716;2023-08-20T00:10:00;11.10;;;8.00;;
22543;SDS011;11438;52.044;8.716;2023-08-20T00:12:25;11.68;;;9.02;;
22543;SDS011;11438;52.044;8.716;2023-08-20T00:14:52;14.10;;;9.98;;
22543;SDS011;11438;52.044;8.716;2023-08-20T00:17:23;13.18;;;9.80;;
22543;SDS011;11438;52.044;8.716;2023-08-20T00:19:52;10.85;;;8.05;;
22543;SDS011;11438;52.044;8.716;2023-08-20T00:22:21;11.25;;;8.05;;
22543;SDS011;11438;52.044;8.716;2023-08-20T00:24:48;11.93;;;9.23;;
22543;SDS011;11438;52.044;8.716;2023-08-20T00:27:14;16.05;;;9.90;;
22543;SDS011;11438;52.044;8.716;2023-08-20T00:29:40;11.20;;;8.93;;
22543;SDS011;11438;52.044;8.716;2023-08-20T00:32:05;10.55;;;8.35;;
22543;SDS011;11438;52.044;8.716;2023-08-20T00:34:31;11.77;;;8.35;;
22543;SDS011;11438;52.044;8.716;2023-08-20T00:36:56;10.65;;;7.88;;
22543;SDS011;11438;52.044;8.716;2023-08-20T00:39:22;10.43;;;7.90;;
22543;SDS011;11438;52.044;8.716;2023-08-20T00:41:47;12.05;;;8.38;;
22543;SDS011;11438;52.044;8.716;2023-08-20T00:44:13;10.05;;;8.35;;
22543;SDS011;11438;52.044;8.716;2023-08-20T00:46:39;12.57;;;8.05;;
22543;SDS011;11438;52.044;8.716;2023-08-20T00:49:04;10.07;;;7.32;;
22543;SDS011;11438;52.044;8.716;2023-08-20T00:51:32;9.73;;;7.22;;
22543;SDS011;11438;52.044;8.716;2023-08-20T00:53:58;9.10;;;6.43;;
22543;SDS011;11438;52.044;8.716;2023-08-20T00:56:25;9.25;;;6.55;;
22543;SDS011;11438;52.044;8.716;2023-08-20T00:58:52;8.75;;;6.53;;
22543;SDS011;11438;52.044;8.716;2023-08-20T01:01:19;9.50;;;6.20;;
22543;SDS011;11438;52.044;8.716;2023-08-20T01:03:45;7.50;;;5.53;;
22543;SDS011;11438;52.044;8.716;2023-08-20T01:08:50;8.48;;;5.50;;
22543;SDS011;11438;52.044;8.716;2023-08-20T01:11:30;9.20;;;6.50;;
22543;SDS011;11438;52.044;8.716;2023-08-20T01:14:02;7.40;;;4.97;;
22543;SDS011;11438;52.044;8.716;2023-08-20T01:16:28;7.55;;;4.97;;
22543;SDS011;11438;52.044;8.716;2023-08-20T01:18:53;9.68;;;6.65;;
22543;SDS011;11438;52.044;8.716;2023-08-20T01:21:29;7.72;;;5.72;;
22543;SDS011;11438;52.044;8.716;2023-08-20T01:26:44;8.60;;;6.70;;
22543;SDS011;11438;52.044;8.716;2023-08-20T01:29:26;5.55;;;4.68;;
22543;SDS011;11438;52.044;8.716;2023-08-20T01:31:53;6.80;;;4.95;;
22543;SDS011;11438;52.044;8.716;2023-08-20T01:34:19;7.72;;;5.40;;
22543;SDS011;11438;52.044;8.716;2023-08-20T01:36:46;8.20;;;6.20;;
22543;SDS011;11438;52.044;8.716;2023-08-20T01:39:11;9.25;;;5.40;;
22543;SDS011;11438;52.044;8.716;2023-08-20T01:41:38;7.72;;;5.90;;
22543;SDS011;11438;52.044;8.716;2023-08-20T01:44:04;8.18;;;4.88;;
22543;SDS011;11438;52.044;8.716;2023-08-20T01:46:29;6.88;;;5.63;;
22543;SDS011;11438;52.044;8.716;2023-08-20T01:48:55;7.57;;;5.38;;
22543;SDS011;11438;52.044;8.716;2023-08-20T01:51:21;7.13;;;4.65;;
22543;SDS011;11438;52.044;8.716;2023-08-20T01:53:46;6.68;;;5.28;;
22543;SDS011;11438;52.044;8.716;2023-08-20T01:56:12;6.63;;;4.57;;
22543;SDS011;11438;52.044;8.716;2023-08-20T01:58:38;6.93;;;4.93;;
22543;SDS011;11438;52.044;8.716;2023-08-20T02:01:03;8.98;;;5.10;;
22543;SDS011;11438;52.044;8.716;2023-08-20T02:03:29;5.47;;;3.72;;
22543;SDS011;11438;52.044;8.716;2023-08-20T02:05:54;4.78;;;3.83;;
22543;SDS011;11438;52.044;8.716;2023-08-20T02:08:20;6.43;;;4.10;;
22543;SDS011;11438;52.044;8.716;2023-08-20T02:10:45;11.23;;;4.40;;
22543;SDS011;11438;52.044;8.716;2023-08-20T02:13:11;6.95;;;4.03;;
22543;SDS011;11438;52.044;8.716;2023-08-20T02:15:37;3.83;;;2.95;;
22543;SDS011;11438;52.044;8.716;2023-08-20T02:18:02;4.38;;;3.08;;
22543;SDS011;11438;52.044;8.716;2023-08-20T02:20:28;5.72;;;3.70;;
22543;SDS011;11438;52.044;8.716;2023-08-20T02:22:54;7.18;;;3.95;;
22543;SDS011;11438;52.044;8.716;2023-08-20T02:25:19;5.07;;;3.60;;
22543;SDS011;11438;52.044;8.716;2023-08-20T02:27:45;6.38;;;3.88;;
22543;SDS011;11438;52.044;8.716;2023-08-20T02:30:10;4.72;;;3.50;;
22543;SDS011;11438;52.044;8.716;2023-08-20T02:32:38;7.68;;;4.28;;
22543;SDS011;11438;52.044;8.716;2023-08-20T02:35:04;5.80;;;3.95;;
22543;SDS011;11438;52.044;8.716;2023-08-20T02:37:30;4.85;;;3.75;;
22543;SDS011;11438;52.044;8.716;2023-08-20T02:39:56;6.13;;;3.63;;
22543;SDS011;11438;52.044;8.716;2023-08-20T02:42:22;6.57;;;4.00;;
22543;SDS011;11438;52.044;8.716;2023-08-20T02:44:47;4.40;;;3.53;;
22543;SDS011;11438;52.044;8.716;2023-08-20T02:47:13;5.10;;;3.55;;
22543;SDS011;11438;52.044;8.716;2023-08-20T02:49:38;5.72;;;3.15;;
22543;SDS011;11438;52.044;8.716;2023-08-20T02:52:04;4.75;;;3.13;;
22543;SDS011;11438;52.044;8.716;2023-08-20T02:54:29;4.05;;;3.10;;
22543;SDS011;11438;52.044;8.716;2023-08-20T02:56:57;5.20;;;2.85;;
22543;SDS011;11438;52.044;8.716;2023-08-20T02:59:23;5.05;;;3.10;;
22543;SDS011;11438;52.044;8.716;2023-08-20T03:01:49;4.20;;;3.10;;
22543;SDS011;11438;52.044;8.716;2023-08-20T03:04:14;4.53;;;2.63;;
22543;SDS011;11438;52.044;8.716;2023-08-20T03:06:40;4.45;;;2.88;;
22543;SDS011;11438;52.044;8.716;2023-08-20T03:09:05;4.85;;;2.65;;
22543;SDS011;11438;52.044;8.716;2023-08-20T03:11:31;4.57;;;2.50;;
22543;SDS011;11438;52.044;8.716;2023-08-20T03:13:56;6.25;;;3.20;;
22543;SDS011;11438;52.044;8.716;2023-08-20T03:16:22;5.97;;;3.60;;
22543;SDS011;11438;52.044;8.716;2023-08-20T03:18:47;6.43;;;3.40;;
22543;SDS011;11438;52.044;8.716;2023-08-20T03:21:13;6.40;;;4.03;;
22543;SDS011;11438;52.044;8.716;2023-08-20T03:23:38;7.85;;;3.28;;
22543;SDS011;11438;52.044;8.716;2023-08-20T03:26:04;4.85;;;3.05;;
22543;SDS011;11438;52.044;8.716;2023-08-20T03:28:29;5.43;;;2.90;;
22543;SDS011;11438;52.044;8.716;2023-08-20T03:30:58;5.78;;;3.10;;
22543;SDS011;11438;52.044;8.716;2023-08-20T03:33:25;7.47;;;3.50;;
22543;SDS011;11438;52.044;8.716;2023-08-20T03:35:50;3.25;;;2.28;;
22543;SDS011;11438;52.044;8.716;2023-08-20T03:38:16;4.82;;;2.97;;
22543;SDS011;11438;52.044;8.716;2023-08-20T03:40:42;5.13;;;2.45;;
22543;SDS011;11438;52.044;8.716;2023-08-20T03:43:07;6.60;;;2.70;;
22543;SDS011;11438;52.044;8.716;2023-08-20T03:45:33;4.53;;;2.55;;
22543;SDS011;11438;52.044;8.716;2023-08-20T03:47:58;3.90;;;2.47;;
22543;SDS011;11438;52.044;8.716;2023-08-20T03:50:24;3.55;;;2.08;;
22543;SDS011;11438;52.044;8.716;2023-08-20T03:52:49;3.60;;;2.15;;
22543;SDS011;11438;52.044;8.716;2023-08-20T03:55:15;4.18;;;2.28;;
22543;SDS011;11438;52.044;8.716;2023-08-20T03:57:40;3.78;;;2.17;;
22543;SDS011;11438;52.044;8.716;2023-08-20T04:00:06;3.58;;;2.15;;
22543;SDS011;11438;52.044;8.716;2023-08-20T04:02:34;4.15;;;2.45;;
22543;SDS011;11438;52.044;8.716;2023-08-20T04:05:00;3.53;;;2.17;;
22543;SDS011;11438;52.044;8.716;2023-08-20T04:07:26;4.55;;;2.83;;
22543;SDS011;11438;52.044;8.716;2023-08-20T04:09:51;5.93;;;2.20;;
22543;SDS011;11438;52.044;8.716;2023-08-20T04:12:17;4.63;;;2.67;;
22543;SDS011;11438;52.044;8.716;2023-08-20T04:14:42;5.35;;;2.42;;
22543;SDS011;11438;52.044;8.716;2023-08-20T04:17:08;3.47;;;2.30;;
22543;SDS011;11438;52.044;8.716;2023-08-20T04:19:33;4.22;;;2.28;;
22543;SDS011;11438;52.044;8.716;2023-08-20T04:21:59;3.80;;;2.30;;
22543;SDS011;11438;52.044;8.716;2023-08-20T04:24:24;3.78;;;1.90;;
22543;SDS011;11438;52.044;8.716;2023-08-20T04:26:50;3.13;;;1.95;;
22543;SDS011;11438;52.044;8.716;2023-08-20T04:29:16;3.83;;;1.98;;
22543;SDS011;11438;52.044;8.716;2023-08-20T04:31:41;3.13;;;1.63;;
22543;SDS011;11438;52.044;8.716;2023-08-20T04:34:07;5.38;;;2.20;;
22543;SDS011;11438;52.044;8.716;2023-08-20T04:36:32;3.70;;;2.25;;
22543;SDS011;11438;52.044;8.716;2023-08-20T04:38:58;2.78;;;2.00;;
22543;SDS011;11438;52.044;8.716;2023-08-20T04:41:24;3.75;;;1.70;;
22543;SDS011;11438;52.044;8.716;2023-08-20T04:43:49;3.53;;;1.90;;
22543;SDS011;11438;52.044;8.716;2023-08-20T04:46:15;4.05;;;2.10;;
22543;SDS011;11438;52.044;8.716;2023-08-20T04:48:40;3.05;;;1.80;;
22543;SDS011;11438;52.044;8.716;2023-08-20T04:51:06;3.80;;;2.05;;
22543;SDS011;11438;52.044;8.716;2023-08-20T04:53:32;2.90;;;1.92;;
22543;SDS011;11438;52.044;8.716;2023-08-20T04:55:57;4.38;;;2.00;;
22543;SDS011;11438;52.044;8.716;2023-08-20T04:58:23;3.85;;;2.28;;
22543;SDS011;11438;52.044;8.716;2023-08-20T05:00:49;3.10;;;1.80;;
22543;SDS011;11438;52.044;8.716;2023-08-20T05:03:15;5.75;;;2.15;;
22543;SDS011;11438;52.044;8.716;2023-08-20T05:05:40;3.60;;;1.85;;
22543;SDS011;11438;52.044;8.716;2023-08-20T05:08:06;4.22;;;1.92;;
22543;SDS011;11438;52.044;8.716;2023-08-20T05:10:32;4.53;;;2.10;;
22543;SDS011;11438;52.044;8.716;2023-08-20T05:13:01;4.15;;;1.98;;
22543;SDS011;11438;52.044;8.716;2023-08-20T05:15:26;2.83;;;1.90;;
22543;SDS011;11438;52.044;8.716;2023-08-20T05:17:52;4.38;;;2.17;;
22543;SDS011;11438;52.044;8.716;2023-08-20T05:20:17;3.42;;;2.13;;
22543;SDS011;11438;52.044;8.716;2023-08-20T05:22:43;2.30;;;1.90;;
22543;SDS011;11438;52.044;8.716;2023-08-20T05:25:08;2.60;;;2.03;;
22543;SDS011;11438;52.044;8.716;2023-08-20T05:27:34;2.97;;;2.00;;
22543;SDS011;11438;52.044;8.716;2023-08-20T05:29:59;5.00;;;2.35;;
22543;SDS011;11438;52.044;8.716;2023-08-20T05:32:25;4.85;;;2.33;;
22543;SDS011;11438;52.044;8.716;2023-08-20T05:34:50;2.17;;;1.85;;
22543;SDS011;11438;52.044;8.716;2023-08-20T05:37:16;4.90;;;1.98;;
22543;SDS011;11438;52.044;8.716;2023-08-20T05:39:43;2.85;;;2.03;;
22543;SDS011;11438;52.044;8.716;2023-08-20T05:42:09;2.95;;;2.03;;
22543;SDS011;11438;52.044;8.716;2023-08-20T05:44:34;4.95;;;2.15;;
22543;SDS011;11438;52.044;8.716;2023-08-20T05:47:00;4.13;;;2.28;;
22543;SDS011;11438;52.044;8.716;2023-08-20T05:49:26;5.38;;;2.42;;
22543;SDS011;11438;52.044;8.716;2023-08-20T05:51:51;4.80;;;2.35;;
22543;SDS011;11438;52.044;8.716;2023-08-20T05:54:17;3.03;;;2.22;;
22543;SDS011;11438;52.044;8.716;2023-08-20T05:56:43;4.38;;;2.33;;
22543;SDS011;11438;52.044;8.716;2023-08-20T05:59:08;4.40;;;1.92;;
22543;SDS011;11438;52.044;8.716;2023-08-20T06:01:34;4.78;;;2.20;;
22543;SDS011;11438;52.044;8.716;2023-08-20T06:03:59;4.13;;;2.17;;
22543;SDS011;11438;52.044;8.716;2023-08-20T06:06:25;3.17;;;2.05;;
22543;SDS011;11438;52.044;8.716;2023-08-20T06:08:51;4.38;;;2.45;;
22543;SDS011;11438;52.044;8.716;2023-08-20T06:11:16;2.92;;;2.10;;
22543;SDS011;11438;52.044;8.716;2023-08-20T06:13:42;4.13;;;2.15;;
22543;SDS011;11438;52.044;8.716;2023-08-20T06:16:07;3.90;;;2.33;;
22543;SDS011;11438;52.044;8.716;2023-08-20T06:18:33;6.03;;;3.33;;
22543;SDS011;11438;52.044;8.716;2023-08-20T06:20:58;4.68;;;2.38;;
22543;SDS011;11438;52.044;8.716;2023-08-20T06:23:24;4.07;;;2.60;;
22543;SDS011;11438;52.044;8.716;2023-08-20T06:25:52;6.50;;;2.67;;
22543;SDS011;11438;52.044;8.716;2023-08-20T06:28:18;4.35;;;2.10;;
22543;SDS011;11438;52.044;8.716;2023-08-20T06:30:44;3.40;;;2.17;;
22543;SDS011;11438;52.044;8.716;2023-08-20T06:33:10;4.90;;;2.25;;
22543;SDS011;11438;52.044;8.716;2023-08-20T06:35:36;7.70;;;2.75;;
22543;SDS011;11438;52.044;8.716;2023-08-20T06:38:02;5.72;;;2.78;;
22543;SDS011;11438;52.044;8.716;2023-08-20T06:40:28;5.25;;;2.72;;
22543;SDS011;11438;52.044;8.716;2023-08-20T06:42:54;3.78;;;2.78;;
22543;SDS011;11438;52.044;8.716;2023-08-20T06:45:19;6.80;;;2.92;;
22543;SDS011;11438;52.044;8.716;2023-08-20T06:47:45;4.72;;;3.10;;
22543;SDS011;11438;52.044;8.716;2023-08-20T06:50:11;6.32;;;3.05;;
22543;SDS011;11438;52.044;8.716;2023-08-20T06:52:37;4.82;;;2.88;;
22543;SDS011;11438;52.044;8.716;2023-08-20T06:55:02;6.32;;;2.97;;
22543;SDS011;11438;52.044;8.716;2023-08-20T06:57:29;5.57;;;3.03;;
22543;SDS011;11438;52.044;8.716;2023-08-20T06:59:54;4.65;;;2.70;;
22543;SDS011;11438;52.044;8.716;2023-08-20T07:02:20;8.30;;;2.97;;
22543;SDS011;11438;52.044;8.716;2023-08-20T07:04:45;4.88;;;3.00;;
22543;SDS011;11438;52.044;8.716;2023-08-20T07:07:11;6.32;;;3.20;;
22543;SDS011;11438;52.044;8.716;2023-08-20T07:09:37;5.53;;;3.22;;
22543;SDS011;11438;52.044;8.716;2023-08-20T07:12:04;4.57;;;2.80;;
22543;SDS011;11438;52.044;8.716;2023-08-20T07:14:30;6.18;;;2.85;;
22543;SDS011;11438;52.044;8.716;2023-08-20T07:16:55;6.18;;;3.15;;
22543;SDS011;11438;52.044;8.716;2023-08-20T07:19:21;5.90;;;3.22;;
22543;SDS011;11438;52.044;8.716;2023-08-20T07:21:46;6.00;;;3.03;;
22543;SDS011;11438;52.044;8.716;2023-08-20T07:24:12;4.75;;;3.03;;
22543;SDS011;11438;52.044;8.716;2023-08-20T07:26:38;5.50;;;3.65;;
22543;SDS011;11438;52.044;8.716;2023-08-20T07:29:04;6.95;;;3.65;;
22543;SDS011;11438;52.044;8.716;2023-08-20T07:31:31;6.75;;;4.07;;
22543;SDS011;11438;52.044;8.716;2023-08-20T07:33:58;6.65;;;3.95;;
22543;SDS011;11438;52.044;8.716;2023-08-20T07:36:25;4.82;;;4.10;;
22543;SDS011;11438;52.044;8.716;2023-08-20T07:38:51;7.18;;;3.90;;
22543;SDS011;11438;52.044;8.716;2023-08-20T07:41:18;5.20;;;3.25;;
22543;SDS011;11438;52.044;8.716;2023-08-20T07:43:47;6.43;;;3.92;;
22543;SDS011;11438;52.044;8.716;2023-08-20T07:46:14;6.20;;;4.50;;
22543;SDS011;11438;52.044;8.716;2023-08-20T07:48:40;5.45;;;3.88;;
22543;SDS011;11438;52.044;8.716;2023-08-20T07:51:06;6.55;;;4.78;;
22543;SDS011;11438;52.044;8.716;2023-08-20T07:53:32;7.05;;;4.57;;
22543;SDS011;11438;52.044;8.716;2023-08-20T07:55:59;8.02;;;4.68;;
22543;SDS011;11438;52.044;8.716;2023-08-20T07:58:27;6.03;;;4.38;;
22543;SDS011;11438;52.044;8.716;2023-08-20T08:00:53;4.82;;;4.28;;
22543;SDS011;11438;52.044;8.716;2023-08-20T08:03:19;7.13;;;4.95;;
22543;SDS011;11438;52.044;8.716;2023-08-20T08:05:46;6.05;;;4.30;;
22543;SDS011;11438;52.044;8.716;2023-08-20T08:08:15;7.18;;;4.65;;
22543;SDS011;11438;52.044;8.716;2023-08-20T08:10:41;7.13;;;4.22;;
22543;SDS011;11438;52.044;8.716;2023-08-20T08:13:09;7.28;;;4.30;;
22543;SDS011;11438;52.044;8.716;2023-08-20T08:15:36;6.03;;;4.80;;
22543;SDS011;11438;52.044;8.716;2023-08-20T08:18:01;6.30;;;4.88;;
22543;SDS011;11438;52.044;8.716;2023-08-20T08:20:27;7.20;;;4.80;;
22543;SDS011;11438;52.044;8.716;2023-08-20T08:22:52;10.57;;;5.45;;
22543;SDS011;11438;52.044;8.716;2023-08-20T08:25:18;6.00;;;4.70;;
22543;SDS011;11438;52.044;8.716;2023-08-20T08:27:44;8.23;;;5.03;;
22543;SDS011;11438;52.044;8.716;2023-08-20T08:30:10;9.00;;;4.90;;
22543;SDS011;11438;52.044;8.716;2023-08-20T08:32:36;8.57;;;5.72;;
22543;SDS011;11438;52.044;8.716;2023-08-20T08:35:01;7.25;;;5.90;;
22543;SDS011;11438;52.044;8.716;2023-08-20T08:37:27;8.02;;;5.20;;
22543;SDS011;11438;52.044;8.716;2023-08-20T08:39:53;6.47;;;5.68;;
22543;SDS011;11438;52.044;8.716;2023-08-20T08:42:18;8.13;;;5.85;;
22543;SDS011;11438;52.044;8.716;2023-08-20T08:44:48;9.15;;;6.20;;
22543;SDS011;11438;52.044;8.716;2023-08-20T08:47:15;6.55;;;5.57;;
22543;SDS011;11438;52.044;8.716;2023-08-20T08:49:41;7.00;;;6.18;;
22543;SDS011;11438;52.044;8.716;2023-08-20T08:52:08;10.05;;;6.43;;
22543;SDS011;11438;52.044;8.716;2023-08-20T08:54:36;8.55;;;7.03;;
22543;SDS011;11438;52.044;8.716;2023-08-20T08:57:01;6.55;;;5.78;;
22543;SDS011;11438;52.044;8.716;2023-08-20T08:59:27;7.55;;;6.18;;
22543;SDS011;11438;52.044;8.716;2023-08-20T09:01:53;9.27;;;7.00;;
22543;SDS011;11438;52.044;8.716;2023-08-20T09:04:21;8.75;;;6.55;;
22543;SDS011;11438;52.044;8.716;2023-08-20T09:06:48;7.60;;;6.65;;
22543;SDS011;11438;52.044;8.716;2023-08-20T09:09:19;10.20;;;7.47;;
22543;SDS011;11438;52.044;8.716;2023-08-20T09:11:48;9.35;;;7.07;;
22543;SDS011;11438;52.044;8.716;2023-08-20T09:17:13;9.00;;;6.38;;
22543;SDS011;11438;52.044;8.716;2023-08-20T09:19:39;7.45;;;6.32;;
22543;SDS011;11438;52.044;8.716;2023-08-20T09:22:06;8.15;;;5.68;;
22543;SDS011;11438;52.044;8.716;2023-08-20T09:24:33;6.80;;;5.55;;
22543;SDS011;11438;52.044;8.716;2023-08-20T09:27:04;7.47;;;6.30;;
22543;SDS011;11438;52.044;8.716;2023-08-20T09:29:33;7.28;;;5.97;;
22543;SDS011;11438;52.044;8.716;2023-08-20T09:32:20;6.90;;;5.35;;
22543;SDS011;11438;52.044;8.716;2023-08-20T09:34:50;7.18;;;5.68;;
22543;SDS011;11438;52.044;8.716;2023-08-20T09:37:18;5.85;;;4.85;;
22543;SDS011;11438;52.044;8.716;2023-08-20T09:39:45;5.40;;;4.50;;
22543;SDS011;11438;52.044;8.716;2023-08-20T09:42:11;5.00;;;4.10;;
22543;SDS011;11438;52.044;8.716;2023-08-20T09:44:41;4.95;;;4.22;;
22543;SDS011;11438;52.044;8.716;2023-08-20T09:47:12;6.03;;;4.35;;
22543;SDS011;11438;52.044;8.716;2023-08-20T09:49:39;4.90;;;3.95;;
22543;SDS011;11438;52.044;8.716;2023-08-20T09:52:09;4.28;;;3.47;;
22543;SDS011;11438;52.044;8.716;2023-08-20T09:54:50;3.40;;;3.08;;
22543;SDS011;11438;52.044;8.716;2023-08-20T09:57:26;4.63;;;3.20;;
22543;SDS011;11438;52.044;8.716;2023-08-20T09:59:58;4.07;;;3.28;;
22543;SDS011;11438;52.044;8.716;2023-08-20T10:02:25;4.80;;;3.20;;
22543;SDS011;11438;52.044;8.716;2023-08-20T10:04:51;4.00;;;3.50;;
22543;SDS011;11438;52.044;8.716;2023-08-20T10:07:18;4.65;;;3.60;;
22543;SDS011;11438;52.044;8.716;2023-08-20T10:09:44;3.97;;;3.40;;
22543;SDS011;11438;52.044;8.716;2023-08-20T10:12:11;3.80;;;3.20;;
22543;SDS011;11438;52.044;8.716;2023-08-20T10:14:40;4.88;;;3.65;;
22543;SDS011;11438;52.044;8.716;2023-08-20T10:17:07;3.85;;;3.55;;
22543;SDS011;11438;52.044;8.716;2023-08-20T10:19:33;3.95;;;3.40;;
22543;SDS011;11438;52.044;8.716;2023-08-20T10:22:01;4.28;;;3.10;;
22543;SDS011;11438;52.044;8.716;2023-08-20T10:24:28;3.42;;;2.97;;
22543;SDS011;11438;52.044;8.716;2023-08-20T10:27:09;5.70;;;3.15;;
22543;SDS011;11438;52.044;8.716;2023-08-20T10:29:39;3.75;;;3.20;;
22543;SDS011;11438;52.044;8.716;2023-08-20T10:32:11;3.63;;;3.03;;
22543;SDS011;11438;52.044;8.716;2023-08-20T10:34:38;4.25;;;3.60;;
22543;SDS011;11438;52.044;8.716;2023-08-20T10:37:08;3.40;;;3.03;;
22543;SDS011;11438;52.044;8.716;2023-08-20T10:39:35;5.07;;;3.85;;
22543;SDS011;11438;52.044;8.716;2023-08-20T10:45:05;5.82;;;3.58;;
22543;SDS011;11438;52.044;8.716;2023-08-20T10:47:43;4.55;;;3.25;;
22543;SDS011;11438;52.044;8.716;2023-08-20T10:50:10;4.93;;;3.65;;
22543;SDS011;11438;52.044;8.716;2023-08-20T10:52:39;2.92;;;2.72;;
22543;SDS011;11438;52.044;8.716;2023-08-20T10:55:07;4.90;;;3.08;;
22543;SDS011;11438;52.044;8.716;2023-08-20T10:57:34;3.97;;;3.30;;
22543;SDS011;11438;52.044;8.716;2023-08-20T11:00:02;4.72;;;3.40;;
22543;SDS011;11438;52.044;8.716;2023-08-20T11:02:34;4.43;;;3.38;;
22543;SDS011;11438;52.044;8.716;2023-08-20T11:05:00;3.63;;;3.30;;
22543;SDS011;11438;52.044;8.716;2023-08-20T11:07:27;3.42;;;3.13;;
22543;SDS011;11438;52.044;8.716;2023-08-20T11:09:55;6.25;;;3.67;;
22543;SDS011;11438;52.044;8.716;2023-08-20T11:12:22;3.95;;;3.03;;
22543;SDS011;11438;52.044;8.716;2023-08-20T11:14:48;3.85;;;3.40;;
22543;SDS011;11438;52.044;8.716;2023-08-20T11:17:14;4.55;;;3.00;;
22543;SDS011;11438;52.044;8.716;2023-08-20T11:19:39;4.15;;;3.20;;
22543;SDS011;11438;52.044;8.716;2023-08-20T11:22:05;3.38;;;3.08;;
22543;SDS011;11438;52.044;8.716;2023-08-20T11:24:31;4.57;;;3.40;;
22543;SDS011;11438;52.044;8.716;2023-08-20T11:26:57;3.95;;;3.30;;
22543;SDS011;11438;52.044;8.716;2023-08-20T11:29:22;3.35;;;3.00;;
22543;SDS011;11438;52.044;8.716;2023-08-20T11:31:51;3.60;;;2.83;;
22543;SDS011;11438;52.044;8.716;2023-08-20T11:34:20;4.28;;;3.13;;
22543;SDS011;11438;52.044;8.716;2023-08-20T11:36:46;3.10;;;2.80;;
22543;SDS011;11438;52.044;8.716;2023-08-20T11:39:13;3.72;;;3.15;;
22543;SDS011;11438;52.044;8.716;2023-08-20T11:41:39;4.35;;;3.38;;
22543;SDS011;11438;52.044;8.716;2023-08-20T11:44:07;4.47;;;2.97;;
22543;SDS011;11438;52.044;8.716;2023-08-20T11:46:33;3.97;;;3.05;;
22543;SDS011;11438;52.044;8.716;2023-08-20T11:49:08;4.03;;;3.33;;
22543;SDS011;11438;52.044;8.716;2023-08-20T11:51:35;3.72;;;3.33;;
22543;SDS011;11438;52.044;8.716;2023-08-20T11:54:14;4.32;;;3.38;;
22543;SDS011;11438;52.044;8.716;2023-08-20T11:56:44;4.90;;;3.15;;
22543;SDS011;11438;52.044;8.716;2023-08-20T11:59:14;4.18;;;3.10;;
22543;SDS011;11438;52.044;8.716;2023-08-20T12:01:40;4.50;;;3.08;;
22543;SDS011;11438;52.044;8.716;2023-08-20T12:04:07;4.65;;;3.80;;
22543;SDS011;11438;52.044;8.716;2023-08-20T12:06:34;4.78;;;3.40;;
22543;SDS011;11438;52.044;8.716;2023-08-20T12:09:01;4.70;;;3.70;;
22543;SDS011;11438;52.044;8.716;2023-08-20T12:11:28;6.30;;;3.42;;
22543;SDS011;11438;52.044;8.716;2023-08-20T12:13:55;4.90;;;3.38;;
22543;SDS011;11438;52.044;8.716;2023-08-20T12:16:24;4.10;;;3.40;;
22543;SDS011;11438;52.044;8.716;2023-08-20T12:18:50;4.50;;;3.30;;
22543;SDS011;11438;52.044;8.716;2023-08-20T12:21:17;5.47;;;2.85;;
22543;SDS011;11438;52.044;8.716;2023-08-20T12:23:43;4.50;;;2.90;;
22543;SDS011;11438;52.044;8.716;2023-08-20T12:26:09;4.45;;;3.33;;
22543;SDS011;11438;52.044;8.716;2023-08-20T12:28:34;3.80;;;3.03;;
22543;SDS011;11438;52.044;8.716;2023-08-20T12:31:00;3.80;;;3.20;;
22543;SDS011;11438;52.044;8.716;2023-08-20T12:33:25;3.78;;;3.17;;
22543;SDS011;11438;52.044;8.716;2023-08-20T12:35:54;4.03;;;3.45;;
22543;SDS011;11438;52.044;8.716;2023-08-20T12:38:20;4.45;;;3.50;;
22543;SDS011;11438;52.044;8.716;2023-08-20T12:40:46;3.33;;;3.00;;
22543;SDS011;11438;52.044;8.716;2023-08-20T12:43:12;7.35;;;3.45;;
22543;SDS011;11438;52.044;8.716;2023-08-20T12:45:37;3.22;;;2.92;;
22543;SDS011;11438;52.044;8.716;2023-08-20T12:48:03;4.90;;;3.38;;
22543;SDS011;11438;52.044;8.716;2023-08-20T12:50:30;4.18;;;3.28;;
22543;SDS011;11438;52.044;8.716;2023-08-20T12:52:56;5.47;;;4.03;;
22543;SDS011;11438;52.044;8.716;2023-08-20T12:55:21;4.57;;;3.35;;
22543;SDS011;11438;52.044;8.716;2023-08-20T12:57:57;4.90;;;3.65;;
22543;SDS011;11438;52.044;8.716;2023-08-20T13:00:23;4.03;;;3.47;;
22543;SDS011;11438;52.044;8.716;2023-08-20T13:02:53;5.28;;;3.83;;
22543;SDS011;11438;52.044;8.716;2023-08-20T13:05:19;4.45;;;3.33;;
22543;SDS011;11438;52.044;8.716;2023-08-20T13:07:45;3.80;;;3.40;;
22543;SDS011;11438;52.044;8.716;2023-08-20T13:10:11;4.82;;;3.60;;
22543;SDS011;11438;52.044;8.716;2023-08-20T13:12:37;4.18;;;3.50;;
22543;SDS011;11438;52.044;8.716;2023-08-20T13:15:14;5.18;;;3.92;;
22543;SDS011;11438;52.044;8.716;2023-08-20T13:17:41;6.13;;;3.60;;
22543;SDS011;11438;52.044;8.716;2023-08-20T13:20:07;5.30;;;3.60;;
22543;SDS011;11438;52.044;8.716;2023-08-20T13:22:33;6.22;;;3.50;;
22543;SDS011;11438;52.044;8.716;2023-08-20T13:24:59;4.28;;;3.42;;
22543;SDS011;11438;52.044;8.716;2023-08-20T13:27:24;4.25;;;3.80;;
22543;SDS011;11438;52.044;8.716;2023-08-20T13:29:50;4.47;;;3.47;;
22543;SDS011;11438;52.044;8.716;2023-08-20T13:32:16;3.88;;;3.58;;
22543;SDS011;11438;52.044;8.716;2023-08-20T13:34:41;3.60;;;3.25;;
22543;SDS011;11438;52.044;8.716;2023-08-20T13:37:07;4.13;;;3.72;;
22543;SDS011;11438;52.044;8.716;2023-08-20T13:39:32;3.97;;;3.58;;
22543;SDS011;11438;52.044;8.716;2023-08-20T13:41:58;8.50;;;4.05;;
22543;SDS011;11438;52.044;8.716;2023-08-20T13:44:23;6.05;;;3.85;;
22543;SDS011;11438;52.044;8.716;2023-08-20T13:46:49;4.32;;;3.78;;
22543;SDS011;11438;52.044;8.716;2023-08-20T13:49:14;4.82;;;3.83;;
22543;SDS011;11438;52.044;8.716;2023-08-20T13:51:40;3.83;;;3.30;;
22543;SDS011;11438;52.044;8.716;2023-08-20T13:54:05;7.50;;;4.10;;
22543;SDS011;11438;52.044;8.716;2023-08-20T13:56:31;4.93;;;4.43;;
22543;SDS011;11438;52.044;8.716;2023-08-20T13:58:56;5.05;;;3.60;;
22543;SDS011;11438;52.044;8.716;2023-08-20T14:01:22;4.50;;;3.72;;
22543;SDS011;11438;52.044;8.716;2023-08-20T14:03:47;3.92;;;3.38;;
22543;SDS011;11438;52.044;8.716;2023-08-20T14:06:14;4.00;;;3.60;;
22543;SDS011;11438;52.044;8.716;2023-08-20T14:08:40;5.38;;;3.63;;
22543;SDS011;11438;52.044;8.716;2023-08-20T14:11:05;4.05;;;3.50;;
22543;SDS011;11438;52.044;8.716;2023-08-20T14:13:31;4.28;;;3.35;;
22543;SDS011;11438;52.044;8.716;2023-08-20T14:15:57;5.38;;;3.63;;
22543;SDS011;11438;52.044;8.716;2023-08-20T14:18:22;3.72;;;3.33;;
22543;SDS011;11438;52.044;8.716;2023-08-20T14:20:48;5.38;;;3.85;;
22543;SDS011;11438;52.044;8.716;2023-08-20T14:23:13;6.03;;;3.50;;
22543;SDS011;11438;52.044;8.716;2023-08-20T14:25:39;4.15;;;3.42;;
22543;SDS011;11438;52.044;8.716;2023-08-20T14:28:06;4.88;;;3.38;;
22543;SDS011;11438;52.044;8.716;2023-08-20T14:30:35;3.80;;;3.40;;
22543;SDS011;11438;52.044;8.716;2023-08-20T14:33:02;5.28;;;3.40;;
22543;SDS011;11438;52.044;8.716;2023-08-20T14:35:29;4.45;;;3.67;;
22543;SDS011;11438;52.044;8.716;2023-08-20T14:37:55;3.53;;;3.22;;
22543;SDS011;11438;52.044;8.716;2023-08-20T14:40:20;4.28;;;3.60;;
22543;SDS011;11438;52.044;8.716;2023-08-20T14:42:46;4.38;;;3.75;;
22543;SDS011;11438;52.044;8.716;2023-08-20T14:45:11;3.60;;;3.30;;
22543;SDS011;11438;52.044;8.716;2023-08-20T14:47:38;4.18;;;3.78;;
22543;SDS011;11438;52.044;8.716;2023-08-20T14:50:05;4.03;;;3.63;;
22543;SDS011;11438;52.044;8.716;2023-08-20T14:52:31;4.50;;;3.95;;